createdAt,value
2022-08-03T00:00:26.209Z,101548.78
2022-08-03T00:02:53.029Z,101550.19
2022-08-03T00:05:19.824Z,101545.16
2022-08-03T00:07:46.217Z,101545.84
2022-08-03T00:10:15.030Z,101548.59
2022-08-03T00:12:41.409Z,101550.25
2022-08-03T00:15:11.142Z,101549.72
2022-08-03T00:17:53.539Z,101545.19
2022-08-03T00:20:21.856Z,101535.59
2022-08-03T00:22:49.441Z,101547.97
2022-08-03T00:25:15.992Z,101540.00
2022-08-03T00:27:42.482Z,101530.41
2022-08-03T00:30:09.616Z,101528.59
2022-08-03T00:32:36.073Z,101538.88
2022-08-03T00:35:07.941Z,101537.22
2022-08-03T00:37:40.815Z,101536.50
2022-08-03T00:40:10.517Z,101539.28
2022-08-03T00:42:46.867Z,101539.00
2022-08-03T00:45:13.339Z,101539.00
2022-08-03T00:47:39.737Z,101527.53
2022-08-03T00:50:06.602Z,101536.03
2022-08-03T00:52:33.021Z,101532.44
2022-08-03T00:55:00.962Z,101528.81
2022-08-03T00:57:30.005Z,101526.69
2022-08-03T00:59:56.463Z,101522.94
2022-08-03T01:02:22.941Z,101520.53
2022-08-03T01:04:49.588Z,101524.16
2022-08-03T01:07:35.785Z,101525.38
2022-08-03T01:10:32.807Z,101522.03
2022-08-03T01:13:13.988Z,101522.72
2022-08-03T01:16:15.364Z,101516.25
2022-08-03T01:18:52.516Z,101507.78
2022-08-03T01:21:26.915Z,101518.72
2022-08-03T01:24:22.547Z,101519.81
2022-08-03T01:27:10.739Z,101516.59
2022-08-03T01:29:49.584Z,101516.75
2022-08-03T01:32:59.977Z,101511.97
2022-08-03T01:35:13.018Z,101512.34
2022-08-03T01:37:45.847Z,101510.94
2022-08-03T01:40:14.243Z,101509.00
2022-08-03T01:42:42.679Z,101513.59
2022-08-03T01:45:12.644Z,101509.84
2022-08-03T01:47:40.483Z,101511.06
2022-08-03T01:50:08.957Z,101508.53
2022-08-03T01:52:40.381Z,101510.63
2022-08-03T01:55:08.678Z,101502.69
2022-08-03T01:58:06.199Z,101495.56
2022-08-03T02:00:25.831Z,101503.44
2022-08-03T02:02:54.684Z,101494.94
2022-08-03T02:05:22.051Z,101496.47
2022-08-03T02:07:49.904Z,101495.28
2022-08-03T02:10:34.345Z,101493.81
2022-08-03T02:13:05.081Z,101492.72
2022-08-03T02:15:33.889Z,101499.13
2022-08-03T02:18:03.147Z,101498.53
2022-08-03T02:20:33.139Z,101504.53
2022-08-03T02:23:00.129Z,101495.28
2022-08-03T02:25:27.048Z,101500.72
2022-08-03T02:27:58.013Z,101495.22
2022-08-03T02:30:31.531Z,101494.41
2022-08-03T02:32:59.248Z,101495.63
2022-08-03T02:35:28.568Z,101487.88
2022-08-03T02:38:01.061Z,101494.00
2022-08-03T02:40:29.688Z,101486.22
2022-08-03T02:42:59.521Z,101490.09
2022-08-03T02:45:27.742Z,101482.16
2022-08-03T02:47:58.094Z,101479.88
2022-08-03T02:50:25.896Z,101473.28
2022-08-03T02:52:53.934Z,101470.75
2022-08-03T02:55:22.839Z,101474.13
2022-08-03T02:57:50.321Z,101470.75
2022-08-03T03:00:27.573Z,101458.97
2022-08-03T03:02:57.898Z,101468.97
2022-08-03T03:05:52.873Z,101472.56
2022-08-03T03:08:18.017Z,101466.56
2022-08-03T03:10:46.506Z,101466.56
2022-08-03T03:13:15.501Z,101469.34
2022-08-03T03:15:44.173Z,101466.84
2022-08-03T03:18:11.279Z,101463.72
2022-08-03T03:20:40.840Z,101464.69
2022-08-03T03:23:09.101Z,101464.09
2022-08-03T03:25:36.251Z,101465.41
2022-08-03T03:28:03.709Z,101460.50
2022-08-03T03:30:34.176Z,101457.75
2022-08-03T03:33:00.939Z,101466.78
2022-08-03T03:35:28.061Z,101466.78
2022-08-03T03:37:54.777Z,101462.44
2022-08-03T03:40:22.246Z,101460.28
2022-08-03T03:42:50.052Z,101470.41
2022-08-03T03:45:16.997Z,101467.53
2022-08-03T03:47:43.686Z,101468.63
2022-08-03T03:50:11.005Z,101467.53
2022-08-03T03:52:37.571Z,101468.00
2022-08-03T03:55:04.287Z,101472.44
2022-08-03T03:57:30.733Z,101466.59
2022-08-03T03:59:57.149Z,101470.06
2022-08-03T04:02:23.851Z,101473.06
2022-08-03T04:05:08.934Z,101460.81
2022-08-03T04:08:28.692Z,101468.03
2022-08-03T04:11:14.777Z,101473.91
2022-08-03T04:13:47.374Z,101471.63
2022-08-03T04:16:18.185Z,101468.13
2022-08-03T04:18:54.558Z,101468.28
2022-08-03T04:21:23.517Z,101469.09
2022-08-03T04:23:52.986Z,101470.78
2022-08-03T04:26:22.659Z,101471.03
2022-08-03T04:28:51.338Z,101476.31
2022-08-03T04:31:20.406Z,101469.84
2022-08-03T04:33:47.401Z,101475.13
2022-08-03T04:36:18.876Z,101476.91
2022-08-03T04:38:59.339Z,101470.56
2022-08-03T04:41:27.353Z,101473.69
2022-08-03T04:43:56.100Z,101478.00
2022-08-03T04:46:26.215Z,101475.34
2022-08-03T04:48:53.140Z,101481.47
2022-08-03T04:51:20.154Z,101477.50
2022-08-03T04:53:46.676Z,101483.41
2022-08-03T04:56:13.233Z,101487.81
2022-08-03T04:58:40.233Z,101490.44
2022-08-03T05:01:07.159Z,101491.44
2022-08-03T05:03:33.664Z,101496.50
2022-08-03T05:06:01.577Z,101489.53
2022-08-03T05:08:36.018Z,101491.09
2022-08-03T05:11:12.969Z,101495.41
2022-08-03T05:13:39.352Z,101501.00
2022-08-03T05:16:05.755Z,101500.28
2022-08-03T05:18:32.259Z,101512.66
2022-08-03T05:20:58.758Z,101504.53
2022-08-03T05:23:25.161Z,101504.28
2022-08-03T05:25:51.615Z,101505.38
2022-08-03T05:28:18.064Z,101509.69
2022-08-03T05:30:44.675Z,101509.19
2022-08-03T05:33:11.303Z,101513.50
2022-08-03T05:35:57.938Z,101509.81
2022-08-03T05:38:33.117Z,101516.66
2022-08-03T05:41:21.590Z,101518.66
2022-08-03T05:43:49.060Z,101520.03
2022-08-03T05:46:15.585Z,101518.56
2022-08-03T05:48:42.594Z,101519.03
2022-08-03T05:51:11.432Z,101518.09
2022-08-03T05:53:39.715Z,101516.13
2022-08-03T05:56:14.895Z,101521.84
2022-08-03T05:58:48.434Z,101513.63
2022-08-03T06:01:16.290Z,101511.03
2022-08-03T06:03:42.905Z,101502.09
2022-08-03T06:06:09.600Z,101510.47
2022-08-03T06:08:36.078Z,101506.56
2022-08-03T06:11:03.265Z,101512.31
2022-08-03T06:13:29.749Z,101507.38
2022-08-03T06:15:56.276Z,101508.06
2022-08-03T06:18:24.470Z,101507.94
2022-08-03T06:20:52.207Z,101513.44
2022-08-03T06:23:19.404Z,101520.28
2022-08-03T06:25:47.363Z,101518.03
2022-08-03T06:28:42.413Z,101517.97
2022-08-03T06:31:01.149Z,101511.56
2022-08-03T06:34:30.757Z,101509.19
2022-08-03T06:36:14.415Z,101518.78
2022-08-03T06:38:40.979Z,101511.25
2022-08-03T06:41:07.519Z,101505.88
2022-08-03T06:43:37.405Z,101506.47
2022-08-03T06:46:05.376Z,101511.69
2022-08-03T06:48:32.376Z,101517.44
2022-08-03T06:50:59.289Z,101509.38
2022-08-03T06:53:26.136Z,101513.91
2022-08-03T06:55:54.846Z,101516.09
2022-08-03T06:58:22.312Z,101514.72
2022-08-03T07:00:48.821Z,101519.06
2022-08-03T07:03:15.612Z,101517.44
2022-08-03T07:05:43.893Z,101527.97
2022-08-03T07:08:10.533Z,101528.16
2022-08-03T07:10:37.252Z,101531.13
2022-08-03T07:13:04.561Z,101525.31
2022-08-03T07:15:38.279Z,101530.63
2022-08-03T07:18:17.616Z,101532.16
2022-08-03T07:20:55.612Z,101538.63
2022-08-03T07:23:22.005Z,101540.00
2022-08-03T07:25:48.434Z,101534.34
2022-08-03T07:28:14.952Z,101540.59
2022-08-03T07:30:41.384Z,101544.06
2022-08-03T07:33:07.863Z,101550.53
2022-08-03T07:35:34.347Z,101548.63
2022-08-03T07:38:00.825Z,101545.91
2022-08-03T07:40:30.726Z,101544.78
2022-08-03T07:42:59.003Z,101538.53
2022-08-03T07:45:26.538Z,101544.69
2022-08-03T07:47:54.320Z,101535.38
2022-08-03T07:50:22.174Z,101548.78
2022-08-03T07:52:53.076Z,101544.91
2022-08-03T07:55:22.558Z,101541.84
2022-08-03T07:58:06.477Z,101539.88
2022-08-03T08:00:36.841Z,101542.28
2022-08-03T08:03:04.899Z,101541.03
2022-08-03T08:05:31.740Z,101542.13
2022-08-03T08:07:58.648Z,101540.31
2022-08-03T08:10:25.500Z,101542.41
2022-08-03T08:12:52.412Z,101543.53
2022-08-03T08:15:18.901Z,101537.50
2022-08-03T08:17:50.159Z,101541.59
2022-08-03T08:20:25.228Z,101539.75
2022-08-03T08:23:01.553Z,101544.88
2022-08-03T08:25:30.195Z,101541.63
2022-08-03T08:28:29.831Z,101548.44
2022-08-03T08:30:43.678Z,101549.69
2022-08-03T08:33:15.698Z,101550.94
2022-08-03T08:35:50.483Z,101552.41
2022-08-03T08:38:16.894Z,101549.75
2022-08-03T08:40:43.427Z,101547.00
2022-08-03T08:43:09.881Z,101545.56
2022-08-03T08:45:37.533Z,101548.34
2022-08-03T08:48:08.117Z,101544.03
2022-08-03T08:50:37.289Z,101548.91
2022-08-03T08:53:07.157Z,101552.19
2022-08-03T08:55:59.131Z,101547.25
2022-08-03T08:58:24.586Z,101549.63
2022-08-03T09:00:51.578Z,101548.88
2022-08-03T09:03:22.573Z,101551.09
2022-08-03T09:05:56.610Z,101544.03
2022-08-03T09:08:23.626Z,101547.56
2022-08-03T09:10:50.337Z,101546.09
2022-08-03T09:13:17.039Z,101536.31
2022-08-03T09:16:00.646Z,101544.38
2022-08-03T09:18:32.669Z,101540.69
2022-08-03T09:21:32.255Z,101544.13
2022-08-03T09:24:05.710Z,101551.88
2022-08-03T09:26:36.056Z,101542.63
2022-08-03T09:29:13.778Z,101537.53
2022-08-03T09:31:44.330Z,101544.59
2022-08-03T09:34:15.965Z,101540.53
2022-08-03T09:36:50.754Z,101548.19
2022-08-03T09:39:19.380Z,101545.47
2022-08-03T09:41:49.326Z,101548.78
2022-08-03T09:44:24.211Z,101545.31
2022-08-03T09:46:55.625Z,101545.06
2022-08-03T09:49:22.912Z,101541.28
2022-08-03T09:52:32.529Z,101542.53
2022-08-03T09:54:36.328Z,101546.34
2022-08-03T09:57:03.070Z,101545.34
2022-08-03T09:59:32.036Z,101552.06
2022-08-03T10:02:00.487Z,101549.53
2022-08-03T10:04:27.625Z,101548.19
2022-08-03T10:07:09.553Z,101548.03
2022-08-03T10:09:37.046Z,101541.97
2022-08-03T10:12:13.768Z,101554.47
2022-08-03T10:14:42.118Z,101551.72
2022-08-03T10:17:09.727Z,101551.91
2022-08-03T10:19:36.588Z,101551.97
2022-08-03T10:22:07.789Z,101549.66
2022-08-03T10:24:36.398Z,101550.00
2022-08-03T10:27:07.130Z,101557.84
2022-08-03T10:29:47.186Z,101551.84
2022-08-03T10:32:30.119Z,101549.84
2022-08-03T10:35:20.932Z,101549.34
2022-08-03T10:38:09.736Z,101544.50
2022-08-03T10:40:48.597Z,101538.03
2022-08-03T10:43:23.169Z,101541.56
2022-08-03T10:45:51.071Z,101534.38
2022-08-03T10:48:19.411Z,101539.38
2022-08-03T10:50:48.448Z,101538.56
2022-08-03T10:53:16.633Z,101541.91
2022-08-03T10:56:05.892Z,101525.03
2022-08-03T10:58:56.832Z,101526.00
2022-08-03T11:02:00.288Z,101527.50
2022-08-03T11:04:29.523Z,101531.69
2022-08-03T11:07:23.514Z,101526.16
2022-08-03T11:09:52.385Z,101517.31
2022-08-03T11:12:32.959Z,101522.66
2022-08-03T11:15:05.762Z,101516.50
2022-08-03T11:17:33.902Z,101513.28
2022-08-03T11:20:13.615Z,101515.09
2022-08-03T11:22:54.538Z,101521.03
2022-08-03T11:25:53.223Z,101520.19
2022-08-03T11:28:25.975Z,101515.13
2022-08-03T11:30:53.325Z,101520.31
2022-08-03T11:33:30.574Z,101521.28
2022-08-03T11:36:01.894Z,101518.78
2022-08-03T11:38:28.372Z,101516.28
2022-08-03T11:40:55.170Z,101523.94
2022-08-03T11:43:31.626Z,101516.13
2022-08-03T11:45:59.409Z,101518.47
2022-08-03T11:48:28.380Z,101522.72
2022-08-03T11:50:54.904Z,101522.63
2022-08-03T11:53:21.427Z,101517.03
2022-08-03T11:55:53.102Z,101510.91
2022-08-03T11:59:15.301Z,101503.66
2022-08-03T12:01:12.500Z,101509.13
2022-08-03T12:03:39.026Z,101508.91
2022-08-03T12:06:10.581Z,101517.81
2022-08-03T12:08:37.153Z,101513.09
2022-08-03T12:11:06.667Z,101515.50
2022-08-03T12:14:26.992Z,101515.31
2022-08-03T12:16:28.762Z,101525.03
2022-08-03T12:18:57.341Z,101523.78
2022-08-03T12:21:24.927Z,101516.88
2022-08-03T12:23:57.270Z,101519.34
2022-08-03T12:26:23.697Z,101516.44
2022-08-03T12:28:50.380Z,101513.38
2022-08-03T12:31:17.145Z,101518.03
2022-08-03T12:34:03.161Z,101509.56
2022-08-03T12:36:35.036Z,101519.06
2022-08-03T12:39:04.241Z,101510.75
2022-08-03T12:41:36.722Z,101502.31
2022-08-03T12:44:05.309Z,101507.78
2022-08-03T12:46:47.418Z,101512.41
2022-08-03T12:49:17.303Z,101512.16
2022-08-03T12:51:43.706Z,101510.19
2022-08-03T12:54:16.845Z,101515.56
2022-08-03T12:57:16.190Z,101511.75
2022-08-03T12:59:53.306Z,101513.31
2022-08-03T13:02:26.012Z,101510.13
2022-08-03T13:04:54.225Z,101509.91
2022-08-03T13:07:22.171Z,101508.81
2022-08-03T13:09:49.754Z,101522.41
2022-08-03T13:12:18.527Z,101510.28
2022-08-03T13:14:48.081Z,101507.44
2022-08-03T13:17:16.819Z,101501.41
2022-08-03T13:19:43.863Z,101510.56
2022-08-03T13:22:28.857Z,101512.50
2022-08-03T13:24:57.468Z,101505.25
2022-08-03T13:28:11.075Z,101509.88
2022-08-03T13:30:21.058Z,101509.81
2022-08-03T13:32:58.577Z,101505.91
2022-08-03T13:35:25.353Z,101510.25
2022-08-03T13:37:51.791Z,101506.75
2022-08-03T13:40:18.322Z,101508.47
2022-08-03T13:42:44.715Z,101501.19
2022-08-03T13:45:11.463Z,101497.56
2022-08-03T13:47:37.972Z,101502.22
2022-08-03T13:50:04.927Z,101508.91
2022-08-03T13:52:32.842Z,101506.44
2022-08-03T13:55:00.070Z,101499.59
2022-08-03T13:58:19.001Z,101507.41
2022-08-03T14:00:26.686Z,101511.22
2022-08-03T14:03:01.866Z,101500.47
2022-08-03T14:05:32.258Z,101500.22
2022-08-03T14:08:03.832Z,101500.72
2022-08-03T14:10:32.159Z,101504.78
2022-08-03T14:13:00.264Z,101508.72
2022-08-03T14:15:28.455Z,101499.34
2022-08-03T14:17:55.172Z,101498.06
2022-08-03T14:20:36.882Z,101502.94
2022-08-03T14:23:06.736Z,101499.66
2022-08-03T14:25:49.851Z,101495.25
2022-08-03T14:28:18.515Z,101484.22
2022-08-03T14:30:45.127Z,101490.59
2022-08-03T14:33:11.822Z,101491.28
2022-08-03T14:35:38.251Z,101474.69
2022-08-03T14:38:04.711Z,101479.44
2022-08-03T14:40:34.061Z,101483.53
2022-08-03T14:43:00.553Z,101480.41
2022-08-03T14:45:26.996Z,101480.34
2022-08-03T14:50:33.566Z,101473.97
2022-08-03T14:50:47.005Z,101470.47
2022-08-03T14:53:17.580Z,101473.22
2022-08-03T14:55:50.020Z,101470.34
2022-08-03T14:58:19.766Z,101474.84
2022-08-03T15:00:49.214Z,101473.47
2022-08-03T15:03:16.889Z,101462.81
2022-08-03T15:05:43.773Z,101466.72
2022-08-03T15:08:10.167Z,101461.53
2022-08-03T15:10:43.757Z,101471.00
2022-08-03T15:13:11.991Z,101468.94
2022-08-03T15:15:38.524Z,101462.97
2022-08-03T15:18:05.018Z,101456.75
2022-08-03T15:20:43.344Z,101467.00
2022-08-03T15:23:11.554Z,101463.09
2022-08-03T15:26:03.597Z,101463.81
2022-08-03T15:28:24.461Z,101460.56
2022-08-03T15:30:54.335Z,101463.69
2022-08-03T15:33:20.885Z,101451.69
2022-08-03T15:35:47.761Z,101458.56
2022-08-03T15:38:14.382Z,101464.84
2022-08-03T15:40:41.262Z,101458.03
2022-08-03T15:43:07.973Z,101453.97
2022-08-03T15:45:36.647Z,101457.53
2022-08-03T15:48:07.015Z,101455.59
2022-08-03T15:50:33.664Z,101458.72
2022-08-03T15:53:00.134Z,101456.59
2022-08-03T15:55:27.229Z,101458.63
2022-08-03T15:59:03.435Z,101449.84
2022-08-03T16:00:41.649Z,101446.34
2022-08-03T16:03:08.150Z,101452.38
2022-08-03T16:05:35.186Z,101450.97
2022-08-03T16:08:06.211Z,101446.06
2022-08-03T16:10:33.559Z,101444.13
2022-08-03T16:13:00.317Z,101443.44
2022-08-03T16:15:27.155Z,101447.13
2022-08-03T16:17:53.716Z,101441.59
2022-08-03T16:20:30.931Z,101449.25
2022-08-03T16:23:00.579Z,101434.81
2022-08-03T16:25:28.209Z,101442.44
2022-08-03T16:28:00.450Z,101441.06
2022-08-03T16:30:34.052Z,101442.84
2022-08-03T16:33:00.584Z,101426.75
2022-08-03T16:35:27.010Z,101432.03
2022-08-03T16:37:56.870Z,101431.25
2022-08-03T16:40:24.960Z,101435.91
2022-08-03T16:42:51.651Z,101432.53
2022-08-03T16:45:18.285Z,101426.09
2022-08-03T16:47:44.774Z,101431.00
2022-08-03T16:50:18.988Z,101431.94
2022-08-03T16:52:48.352Z,101421.84
2022-08-03T16:55:18.441Z,101431.69
2022-08-03T16:58:03.345Z,101428.75
2022-08-03T17:00:33.182Z,101427.84
2022-08-03T17:03:04.386Z,101433.94
2022-08-03T17:05:32.660Z,101431.00
2022-08-03T17:08:15.802Z,101433.47
2022-08-03T17:10:45.126Z,101425.91
2022-08-03T17:13:21.798Z,101423.72
2022-08-03T17:15:58.013Z,101425.34
2022-08-03T17:18:34.031Z,101421.34
2022-08-03T17:21:05.037Z,101421.09
2022-08-03T17:23:44.327Z,101424.53
2022-08-03T17:26:21.242Z,101427.50
2022-08-03T17:28:57.353Z,101429.81
2022-08-03T17:31:31.312Z,101432.50
2022-08-03T17:34:04.271Z,101434.28
2022-08-03T17:37:02.647Z,101431.22
2022-08-03T17:39:30.879Z,101429.94
2022-08-03T17:42:00.739Z,101432.44
2022-08-03T17:44:35.082Z,101429.09
2022-08-03T17:47:08.135Z,101435.13
2022-08-03T17:49:40.044Z,101436.50
2022-08-03T17:52:34.882Z,101436.59
2022-08-03T17:55:57.602Z,101434.72
2022-08-03T17:58:15.989Z,101431.16
2022-08-03T18:01:04.753Z,101438.38
2022-08-03T18:03:58.326Z,101444.38
2022-08-03T18:06:30.601Z,101440.19
2022-08-03T18:09:04.686Z,101444.16
2022-08-03T18:11:35.638Z,101440.66
2022-08-03T18:14:17.214Z,101442.34
2022-08-03T18:16:49.084Z,101443.44
2022-08-03T18:19:16.896Z,101441.25
2022-08-03T18:22:02.749Z,101441.06
2022-08-03T18:24:30.809Z,101433.28
2022-08-03T18:27:03.142Z,101431.44
2022-08-03T18:29:30.575Z,101440.03
2022-08-03T18:32:06.807Z,101430.66
2022-08-03T18:34:41.104Z,101431.88
2022-08-03T18:37:26.008Z,101433.91
2022-08-03T18:39:57.973Z,101427.25
2022-08-03T18:42:26.233Z,101434.72
2022-08-03T18:44:56.128Z,101421.88
2022-08-03T18:47:52.069Z,101424.28
2022-08-03T18:50:22.503Z,101425.91
2022-08-03T18:52:59.377Z,101429.16
2022-08-03T18:55:35.809Z,101433.09
2022-08-03T18:58:05.106Z,101429.91
2022-08-03T19:03:24.163Z,101426.00
2022-08-03T19:06:09.457Z,101437.44
2022-08-03T19:08:49.351Z,101431.13
2022-08-03T19:11:28.293Z,101438.50
2022-08-03T19:13:59.220Z,101436.25
2022-08-03T19:16:38.797Z,101439.28
2022-08-03T19:19:10.578Z,101435.31
2022-08-03T19:21:41.280Z,101447.56
2022-08-03T19:24:13.582Z,101447.56
2022-08-03T19:26:41.319Z,101439.53
2022-08-03T19:31:59.781Z,101454.44
2022-08-03T19:34:29.241Z,101451.47
2022-08-03T19:36:58.295Z,101455.50
2022-08-03T19:39:25.648Z,101452.66
2022-08-03T19:42:08.142Z,101451.81
2022-08-03T19:44:38.604Z,101450.19
2022-08-03T19:47:11.222Z,101449.22
2022-08-03T19:50:06.001Z,101452.59
2022-08-03T19:52:39.497Z,101452.25
2022-08-03T19:55:12.133Z,101458.63
2022-08-03T19:57:42.292Z,101451.31
2022-08-03T20:00:12.284Z,101447.66
2022-08-03T20:02:41.323Z,101445.31
2022-08-03T20:05:14.863Z,101447.47
2022-08-03T20:07:47.456Z,101447.84
2022-08-03T20:10:15.864Z,101448.19
2022-08-03T20:12:44.549Z,101443.84
2022-08-03T20:15:22.227Z,101442.19
2022-08-03T20:17:56.390Z,101441.97
2022-08-03T20:20:32.609Z,101443.53
2022-08-03T20:23:03.695Z,101439.38
2022-08-03T20:25:48.647Z,101440.38
2022-08-03T20:28:50.551Z,101429.06
2022-08-03T20:31:20.103Z,101431.06
2022-08-03T20:33:49.250Z,101427.09
2022-08-03T20:36:17.792Z,101427.41
2022-08-03T20:38:48.324Z,101432.41
2022-08-03T20:41:17.860Z,101426.22
2022-08-03T20:43:44.828Z,101432.75
2022-08-03T20:46:29.621Z,101435.59
2022-08-03T20:48:59.638Z,101437.78
2022-08-03T20:51:50.626Z,101437.06
2022-08-03T20:54:29.820Z,101426.75
2022-08-03T20:57:03.633Z,101428.06
2022-08-03T20:59:46.984Z,101425.88
2022-08-03T21:02:19.220Z,101429.41
2022-08-03T21:04:47.421Z,101419.06
2022-08-03T21:07:24.194Z,101430.56
2022-08-03T21:09:55.488Z,101420.72
2022-08-03T21:12:48.144Z,101427.25
2022-08-03T21:13:02.204Z,101446.72
2022-08-03T21:13:09.235Z,101429.75
2022-08-03T21:16:02.402Z,101423.91
2022-08-03T21:18:11.011Z,101424.22
2022-08-03T21:20:38.951Z,101414.22
2022-08-03T21:23:08.854Z,101414.69
2022-08-03T21:25:36.207Z,101409.38
2022-08-03T21:28:07.569Z,101410.03
2022-08-03T21:30:35.006Z,101400.19
2022-08-03T21:33:01.759Z,101401.53
2022-08-03T21:35:28.511Z,101409.38
2022-08-03T21:38:13.660Z,101390.16
2022-08-03T21:40:41.028Z,101393.81
2022-08-03T21:43:07.966Z,101401.13
2022-08-03T21:45:48.299Z,101395.97
2022-08-03T21:48:16.588Z,101403.59
2022-08-03T21:50:43.983Z,101394.78
2022-08-03T21:53:11.278Z,101396.78
2022-08-03T21:55:40.076Z,101395.13
2022-08-03T21:58:06.853Z,101393.44
2022-08-03T22:00:34.850Z,101395.59
2022-08-03T22:03:15.286Z,101396.06
2022-08-03T22:05:44.767Z,101383.91
2022-08-03T22:08:13.570Z,101388.22
2022-08-03T22:10:43.053Z,101388.53
2022-08-03T22:13:09.585Z,101381.72
2022-08-03T22:15:36.096Z,101382.66
2022-08-03T22:18:03.724Z,101379.50
2022-08-03T22:20:30.320Z,101387.59
2022-08-03T22:23:01.674Z,101389.38
2022-08-03T22:25:31.393Z,101376.72
2022-08-03T22:28:01.428Z,101386.41
2022-08-03T22:30:29.253Z,101378.50
2022-08-03T22:32:56.301Z,101377.38
2022-08-03T22:35:24.957Z,101378.31
2022-08-03T22:37:54.143Z,101375.16
2022-08-03T22:40:21.251Z,101373.31
2022-08-03T22:42:52.498Z,101374.78
2022-08-03T22:46:07.771Z,101367.44
2022-08-03T22:48:08.114Z,101374.09
2022-08-03T22:50:34.966Z,101379.75
2022-08-03T22:53:01.629Z,101370.25
2022-08-03T22:55:28.862Z,101369.06
2022-08-03T22:57:56.143Z,101364.25
2022-08-03T23:00:23.875Z,101367.75
2022-08-03T23:02:51.755Z,101370.50
2022-08-03T23:06:01.900Z,101365.34
2022-08-03T23:08:14.635Z,101363.34
2022-08-03T23:10:46.743Z,101364.78
2022-08-03T23:13:16.565Z,101368.75
2022-08-03T23:15:55.668Z,101366.09
2022-08-03T23:18:23.515Z,101366.00
2022-08-03T23:20:52.748Z,101365.16
2022-08-03T23:23:20.541Z,101358.41
2022-08-03T23:25:49.612Z,101362.22
2022-08-03T23:28:16.582Z,101361.28
2022-08-03T23:30:44.662Z,101367.28
2022-08-03T23:33:16.489Z,101367.22
2022-08-03T23:36:28.113Z,101367.91
2022-08-03T23:38:48.907Z,101366.88
2022-08-03T23:41:18.690Z,101369.81
2022-08-03T23:43:53.523Z,101361.31
2022-08-03T23:46:25.763Z,101367.47
2022-08-03T23:48:53.835Z,101358.50
2022-08-03T23:51:34.866Z,101361.09
2022-08-03T23:54:20.123Z,101356.75
2022-08-03T23:57:05.007Z,101351.59
2022-08-03T23:59:50.455Z,101347.34
